sensor_id;sensor_type;location;lat;lon;timestamp;P1;durP1;ratioP1;P2;durP2;ratioP2
6199;SDS011;3133;43.214;27.906;2023-08-12T00:02:10;18.40;;;10.63;;
6199;SDS011;3133;43.214;27.906;2023-08-12T00:04:37;16.30;;;11.43;;
6199;SDS011;3133;43.214;27.906;2023-08-12T00:07:04;19.60;;;12.80;;
6199;SDS011;3133;43.214;27.906;2023-08-12T00:09:31;22.33;;;12.57;;
6199;SDS011;3133;43.214;27.906;2023-08-12T00:11:59;16.80;;;11.23;;
6199;SDS011;3133;43.214;27.906;2023-08-12T00:14:26;18.60;;;12.30;;
6199;SDS011;3133;43.214;27.906;2023-08-12T00:16:53;18.77;;;11.33;;
6199;SDS011;3133;43.214;27.906;2023-08-12T00:19:20;14.47;;;11.70;;
6199;SDS011;3133;43.214;27.906;2023-08-12T00:21:47;19.07;;;12.40;;
6199;SDS011;3133;43.214;27.906;2023-08-12T00:24:14;15.03;;;11.00;;
6199;SDS011;3133;43.214;27.906;2023-08-12T00:26:41;16.37;;;12.00;;
6199;SDS011;3133;43.214;27.906;2023-08-12T00:29:10;14.23;;;11.23;;
6199;SDS011;3133;43.214;27.906;2023-08-12T00:31:36;12.73;;;9.63;;
6199;SDS011;3133;43.214;27.906;2023-08-12T00:34:03;12.97;;;9.90;;
6199;SDS011;3133;43.214;27.906;2023-08-12T00:36:30;15.07;;;10.33;;
6199;SDS011;3133;43.214;27.906;2023-08-12T00:38:57;13.07;;;10.00;;
6199;SDS011;3133;43.214;27.906;2023-08-12T00:41:24;11.60;;;9.70;;
6199;SDS011;3133;43.214;27.906;2023-08-12T00:43:50;14.40;;;9.73;;
6199;SDS011;3133;43.214;27.906;2023-08-12T00:46:19;23.57;;;10.83;;
6199;SDS011;3133;43.214;27.906;2023-08-12T00:48:46;15.77;;;10.63;;
6199;SDS011;3133;43.214;27.906;2023-08-12T00:51:14;17.20;;;12.13;;
6199;SDS011;3133;43.214;27.906;2023-08-12T00:53:41;17.63;;;14.00;;
6199;SDS011;3133;43.214;27.906;2023-08-12T00:56:08;15.00;;;12.50;;
6199;SDS011;3133;43.214;27.906;2023-08-12T00:58:36;16.67;;;12.60;;
6199;SDS011;3133;43.214;27.906;2023-08-12T01:01:04;18.33;;;12.33;;
6199;SDS011;3133;43.214;27.906;2023-08-12T01:03:32;15.63;;;12.37;;
6199;SDS011;3133;43.214;27.906;2023-08-12T01:05:59;21.57;;;13.53;;
6199;SDS011;3133;43.214;27.906;2023-08-12T01:08:27;24.73;;;11.83;;
6199;SDS011;3133;43.214;27.906;2023-08-12T01:10:58;18.27;;;11.50;;
6199;SDS011;3133;43.214;27.906;2023-08-12T01:13:30;16.27;;;12.37;;
6199;SDS011;3133;43.214;27.906;2023-08-12T01:16:03;19.47;;;12.30;;
6199;SDS011;3133;43.214;27.906;2023-08-12T01:18:36;17.13;;;10.30;;
6199;SDS011;3133;43.214;27.906;2023-08-12T01:21:05;13.37;;;10.33;;
6199;SDS011;3133;43.214;27.906;2023-08-12T01:23:39;11.77;;;10.37;;
6199;SDS011;3133;43.214;27.906;2023-08-12T01:26:06;13.43;;;9.20;;
6199;SDS011;3133;43.214;27.906;2023-08-12T01:28:34;14.13;;;9.67;;
6199;SDS011;3133;43.214;27.906;2023-08-12T01:31:02;11.13;;;8.53;;
6199;SDS011;3133;43.214;27.906;2023-08-12T01:33:39;20.63;;;9.00;;
6199;SDS011;3133;43.214;27.906;2023-08-12T01:36:14;9.17;;;6.80;;
6199;SDS011;3133;43.214;27.906;2023-08-12T01:38:49;8.93;;;6.27;;
6199;SDS011;3133;43.214;27.906;2023-08-12T01:41:18;7.37;;;5.90;;
6199;SDS011;3133;43.214;27.906;2023-08-12T01:43:49;9.60;;;6.53;;
6199;SDS011;3133;43.214;27.906;2023-08-12T01:46:16;11.80;;;6.43;;
6199;SDS011;3133;43.214;27.906;2023-08-12T01:48:43;7.37;;;6.50;;
6199;SDS011;3133;43.214;27.906;2023-08-12T01:51:10;9.90;;;6.83;;
6199;SDS011;3133;43.214;27.906;2023-08-12T01:53:38;7.93;;;6.27;;
6199;SDS011;3133;43.214;27.906;2023-08-12T01:56:06;13.80;;;5.73;;
6199;SDS011;3133;43.214;27.906;2023-08-12T01:58:33;10.40;;;5.63;;
6199;SDS011;3133;43.214;27.906;2023-08-12T02:01:00;6.70;;;5.43;;
6199;SDS011;3133;43.214;27.906;2023-08-12T02:03:27;7.53;;;4.77;;
6199;SDS011;3133;43.214;27.906;2023-08-12T02:05:54;5.27;;;4.77;;
6199;SDS011;3133;43.214;27.906;2023-08-12T02:08:21;7.97;;;4.90;;
6199;SDS011;3133;43.214;27.906;2023-08-12T02:10:48;10.27;;;5.10;;
6199;SDS011;3133;43.214;27.906;2023-08-12T02:13:17;5.70;;;4.57;;
6199;SDS011;3133;43.214;27.906;2023-08-12T02:15:43;6.33;;;5.17;;
6199;SDS011;3133;43.214;27.906;2023-08-12T02:18:10;6.43;;;4.70;;
6199;SDS011;3133;43.214;27.906;2023-08-12T02:20:37;6.60;;;5.13;;
6199;SDS011;3133;43.214;27.906;2023-08-12T02:23:04;4.83;;;4.33;;
6199;SDS011;3133;43.214;27.906;2023-08-12T02:25:31;6.47;;;5.40;;
6199;SDS011;3133;43.214;27.906;2023-08-12T02:27:58;5.83;;;5.17;;
6199;SDS011;3133;43.214;27.906;2023-08-12T02:30:28;6.47;;;5.00;;
6199;SDS011;3133;43.214;27.906;2023-08-12T02:32:55;7.33;;;4.90;;
6199;SDS011;3133;43.214;27.906;2023-08-12T02:35:22;9.57;;;4.90;;
6199;SDS011;3133;43.214;27.906;2023-08-12T02:37:48;7.97;;;5.10;;
6199;SDS011;3133;43.214;27.906;2023-08-12T02:40:15;5.90;;;5.27;;
6199;SDS011;3133;43.214;27.906;2023-08-12T02:42:42;7.40;;;5.00;;
6199;SDS011;3133;43.214;27.906;2023-08-12T02:45:09;7.67;;;5.40;;
6199;SDS011;3133;43.214;27.906;2023-08-12T02:47:37;7.60;;;5.10;;
6199;SDS011;3133;43.214;27.906;2023-08-12T02:50:05;8.63;;;4.97;;
6199;SDS011;3133;43.214;27.906;2023-08-12T02:52:33;11.50;;;5.20;;
6199;SDS011;3133;43.214;27.906;2023-08-12T02:54:59;6.33;;;5.07;;
6199;SDS011;3133;43.214;27.906;2023-08-12T02:57:26;6.40;;;5.00;;
6199;SDS011;3133;43.214;27.906;2023-08-12T02:59:53;7.70;;;5.00;;
6199;SDS011;3133;43.214;27.906;2023-08-12T03:02:20;7.20;;;5.27;;
6199;SDS011;3133;43.214;27.906;2023-08-12T03:04:48;10.67;;;5.33;;
6199;SDS011;3133;43.214;27.906;2023-08-12T03:07:15;6.40;;;5.00;;
6199;SDS011;3133;43.214;27.906;2023-08-12T03:09:42;5.13;;;4.60;;
6199;SDS011;3133;43.214;27.906;2023-08-12T03:12:09;8.13;;;5.57;;
6199;SDS011;3133;43.214;27.906;2023-08-12T03:14:37;5.80;;;5.03;;
6199;SDS011;3133;43.214;27.906;2023-08-12T03:17:04;7.03;;;5.33;;
6199;SDS011;3133;43.214;27.906;2023-08-12T03:19:31;8.27;;;5.60;;
6199;SDS011;3133;43.214;27.906;2023-08-12T03:21:59;8.60;;;5.60;;
6199;SDS011;3133;43.214;27.906;2023-08-12T03:24:26;6.60;;;5.23;;
6199;SDS011;3133;43.214;27.906;2023-08-12T03:26:53;6.43;;;4.87;;
6199;SDS011;3133;43.214;27.906;2023-08-12T03:29:20;6.33;;;4.90;;
6199;SDS011;3133;43.214;27.906;2023-08-12T03:31:48;9.43;;;5.57;;
6199;SDS011;3133;43.214;27.906;2023-08-12T03:34:17;11.83;;;5.43;;
6199;SDS011;3133;43.214;27.906;2023-08-12T03:36:48;7.40;;;5.27;;
6199;SDS011;3133;43.214;27.906;2023-08-12T03:39:23;8.00;;;4.93;;
6199;SDS011;3133;43.214;27.906;2023-08-12T03:42:06;8.50;;;5.50;;
6199;SDS011;3133;43.214;27.906;2023-08-12T03:48:05;7.90;;;5.90;;
6199;SDS011;3133;43.214;27.906;2023-08-12T03:50:34;7.63;;;5.30;;
6199;SDS011;3133;43.214;27.906;2023-08-12T03:53:01;6.20;;;5.00;;
6199;SDS011;3133;43.214;27.906;2023-08-12T03:55:31;8.37;;;5.33;;
6199;SDS011;3133;43.214;27.906;2023-08-12T03:58:00;7.90;;;5.13;;
6199;SDS011;3133;43.214;27.906;2023-08-12T04:00:28;8.43;;;5.40;;
6199;SDS011;3133;43.214;27.906;2023-08-12T04:02:56;16.87;;;5.80;;
6199;SDS011;3133;43.214;27.906;2023-08-12T04:05:23;8.97;;;5.80;;
6199;SDS011;3133;43.214;27.906;2023-08-12T04:07:50;6.70;;;5.57;;
6199;SDS011;3133;43.214;27.906;2023-08-12T04:10:16;6.07;;;5.47;;
6199;SDS011;3133;43.214;27.906;2023-08-12T04:12:45;7.93;;;5.27;;
6199;SDS011;3133;43.214;27.906;2023-08-12T04:15:12;10.13;;;5.67;;
6199;SDS011;3133;43.214;27.906;2023-08-12T04:17:39;5.83;;;5.23;;
6199;SDS011;3133;43.214;27.906;2023-08-12T04:20:07;7.03;;;5.23;;
6199;SDS011;3133;43.214;27.906;2023-08-12T04:22:34;6.27;;;4.80;;
6199;SDS011;3133;43.214;27.906;2023-08-12T04:25:01;6.93;;;5.20;;
6199;SDS011;3133;43.214;27.906;2023-08-12T04:27:29;7.17;;;5.60;;
6199;SDS011;3133;43.214;27.906;2023-08-12T04:29:57;10.60;;;6.00;;
6199;SDS011;3133;43.214;27.906;2023-08-12T04:32:24;6.63;;;5.70;;
6199;SDS011;3133;43.214;27.906;2023-08-12T04:34:51;6.03;;;5.43;;
6199;SDS011;3133;43.214;27.906;2023-08-12T04:37:18;15.63;;;5.40;;
6199;SDS011;3133;43.214;27.906;2023-08-12T04:39:45;10.70;;;5.70;;
6199;SDS011;3133;43.214;27.906;2023-08-12T04:42:12;6.33;;;5.60;;
6199;SDS011;3133;43.214;27.906;2023-08-12T04:44:39;10.30;;;6.40;;
6199;SDS011;3133;43.214;27.906;2023-08-12T04:47:08;6.60;;;5.77;;
6199;SDS011;3133;43.214;27.906;2023-08-12T04:49:36;10.10;;;5.83;;
6199;SDS011;3133;43.214;27.906;2023-08-12T04:52:03;8.03;;;5.90;;
6199;SDS011;3133;43.214;27.906;2023-08-12T04:54:30;8.20;;;6.07;;
6199;SDS011;3133;43.214;27.906;2023-08-12T04:56:57;10.83;;;6.47;;
6199;SDS011;3133;43.214;27.906;2023-08-12T04:59:24;6.33;;;5.67;;
6199;SDS011;3133;43.214;27.906;2023-08-12T05:01:51;8.63;;;5.70;;
6199;SDS011;3133;43.214;27.906;2023-08-12T05:04:20;7.10;;;5.40;;
6199;SDS011;3133;43.214;27.906;2023-08-12T05:06:47;6.93;;;4.90;;
6199;SDS011;3133;43.214;27.906;2023-08-12T05:09:15;11.43;;;5.20;;
6199;SDS011;3133;43.214;27.906;2023-08-12T05:11:43;7.50;;;5.13;;
6199;SDS011;3133;43.214;27.906;2023-08-12T05:14:11;9.40;;;5.47;;
6199;SDS011;3133;43.214;27.906;2023-08-12T05:16:38;23.57;;;6.47;;
6199;SDS011;3133;43.214;27.906;2023-08-12T05:19:06;5.77;;;5.17;;
6199;SDS011;3133;43.214;27.906;2023-08-12T05:21:35;7.83;;;5.57;;
6199;SDS011;3133;43.214;27.906;2023-08-12T05:24:02;10.53;;;4.83;;
6199;SDS011;3133;43.214;27.906;2023-08-12T05:26:29;22.53;;;6.77;;
6199;SDS011;3133;43.214;27.906;2023-08-12T05:28:56;9.97;;;5.67;;
6199;SDS011;3133;43.214;27.906;2023-08-12T05:31:23;10.90;;;5.77;;
6199;SDS011;3133;43.214;27.906;2023-08-12T05:33:50;78.10;;;11.27;;
6199;SDS011;3133;43.214;27.906;2023-08-12T05:36:17;7.53;;;4.80;;
6199;SDS011;3133;43.214;27.906;2023-08-12T05:38:45;12.60;;;5.27;;
6199;SDS011;3133;43.214;27.906;2023-08-12T05:41:13;10.83;;;5.33;;
6199;SDS011;3133;43.214;27.906;2023-08-12T05:43:39;8.33;;;5.43;;
6199;SDS011;3133;43.214;27.906;2023-08-12T05:46:06;7.60;;;5.70;;
6199;SDS011;3133;43.214;27.906;2023-08-12T05:48:33;9.27;;;5.00;;
6199;SDS011;3133;43.214;27.906;2023-08-12T05:51:00;13.13;;;5.50;;
6199;SDS011;3133;43.214;27.906;2023-08-12T05:53:27;6.03;;;5.03;;
6199;SDS011;3133;43.214;27.906;2023-08-12T05:55:55;10.10;;;5.83;;
6199;SDS011;3133;43.214;27.906;2023-08-12T05:58:22;14.87;;;5.97;;
6199;SDS011;3133;43.214;27.906;2023-08-12T06:00:49;7.20;;;5.40;;
6199;SDS011;3133;43.214;27.906;2023-08-12T06:03:16;10.97;;;5.33;;
6199;SDS011;3133;43.214;27.906;2023-08-12T06:05:44;13.43;;;5.77;;
6199;SDS011;3133;43.214;27.906;2023-08-12T06:08:12;5.53;;;4.70;;
6199;SDS011;3133;43.214;27.906;2023-08-12T06:10:39;13.20;;;5.60;;
6199;SDS011;3133;43.214;27.906;2023-08-12T06:13:08;12.23;;;5.70;;
6199;SDS011;3133;43.214;27.906;2023-08-12T06:15:35;6.13;;;5.10;;
6199;SDS011;3133;43.214;27.906;2023-08-12T06:18:02;6.63;;;5.30;;
6199;SDS011;3133;43.214;27.906;2023-08-12T06:20:29;13.17;;;5.20;;
6199;SDS011;3133;43.214;27.906;2023-08-12T06:22:56;10.77;;;4.97;;
6199;SDS011;3133;43.214;27.906;2023-08-12T06:25:23;11.10;;;4.83;;
6199;SDS011;3133;43.214;27.906;2023-08-12T06:27:50;11.57;;;5.37;;
6199;SDS011;3133;43.214;27.906;2023-08-12T06:30:18;11.27;;;4.83;;
6199;SDS011;3133;43.214;27.906;2023-08-12T06:32:47;10.70;;;5.40;;
6199;SDS011;3133;43.214;27.906;2023-08-12T06:35:14;11.60;;;5.43;;
6199;SDS011;3133;43.214;27.906;2023-08-12T06:37:41;15.40;;;5.40;;
6199;SDS011;3133;43.214;27.906;2023-08-12T06:40:08;6.97;;;5.20;;
6199;SDS011;3133;43.214;27.906;2023-08-12T06:42:35;9.70;;;6.10;;
6199;SDS011;3133;43.214;27.906;2023-08-12T06:45:02;9.53;;;5.20;;
6199;SDS011;3133;43.214;27.906;2023-08-12T06:47:31;17.43;;;5.73;;
6199;SDS011;3133;43.214;27.906;2023-08-12T06:49:58;6.97;;;5.50;;
6199;SDS011;3133;43.214;27.906;2023-08-12T06:52:25;12.47;;;5.63;;
6199;SDS011;3133;43.214;27.906;2023-08-12T06:54:52;19.37;;;5.73;;
6199;SDS011;3133;43.214;27.906;2023-08-12T06:57:18;6.77;;;4.97;;
6199;SDS011;3133;43.214;27.906;2023-08-12T06:59:45;10.97;;;5.17;;
6199;SDS011;3133;43.214;27.906;2023-08-12T07:02:12;8.17;;;5.40;;
6199;SDS011;3133;43.214;27.906;2023-08-12T07:04:40;11.30;;;5.33;;
6199;SDS011;3133;43.214;27.906;2023-08-12T07:07:07;10.67;;;5.70;;
6199;SDS011;3133;43.214;27.906;2023-08-12T07:09:34;7.33;;;5.00;;
6199;SDS011;3133;43.214;27.906;2023-08-12T07:12:01;8.23;;;5.60;;
6199;SDS011;3133;43.214;27.906;2023-08-12T07:14:29;7.43;;;5.17;;
6199;SDS011;3133;43.214;27.906;2023-08-12T07:16:56;6.60;;;5.47;;
6199;SDS011;3133;43.214;27.906;2023-08-12T07:19:23;5.13;;;4.53;;
6199;SDS011;3133;43.214;27.906;2023-08-12T07:21:51;9.53;;;5.07;;
6199;SDS011;3133;43.214;27.906;2023-08-12T07:24:18;6.90;;;5.23;;
6199;SDS011;3133;43.214;27.906;2023-08-12T07:26:45;7.27;;;4.87;;
6199;SDS011;3133;43.214;27.906;2023-08-12T07:29:13;9.47;;;5.53;;
6199;SDS011;3133;43.214;27.906;2023-08-12T07:31:40;6.90;;;5.00;;
6199;SDS011;3133;43.214;27.906;2023-08-12T07:34:08;9.13;;;5.03;;
6199;SDS011;3133;43.214;27.906;2023-08-12T07:36:38;15.47;;;5.43;;
6199;SDS011;3133;43.214;27.906;2023-08-12T07:39:06;7.83;;;5.10;;
6199;SDS011;3133;43.214;27.906;2023-08-12T07:41:33;9.13;;;5.80;;
6199;SDS011;3133;43.214;27.906;2023-08-12T07:44:00;6.70;;;5.97;;
6199;SDS011;3133;43.214;27.906;2023-08-12T07:46:28;10.50;;;5.43;;
6199;SDS011;3133;43.214;27.906;2023-08-12T07:48:55;26.00;;;6.30;;
6199;SDS011;3133;43.214;27.906;2023-08-12T07:51:22;6.67;;;5.80;;
6199;SDS011;3133;43.214;27.906;2023-08-12T07:53:49;16.83;;;6.43;;
6199;SDS011;3133;43.214;27.906;2023-08-12T07:56:18;10.07;;;5.50;;
6199;SDS011;3133;43.214;27.906;2023-08-12T07:58:44;11.73;;;6.07;;
6199;SDS011;3133;43.214;27.906;2023-08-12T08:01:13;6.70;;;5.63;;
6199;SDS011;3133;43.214;27.906;2023-08-12T08:03:41;14.40;;;6.10;;
6199;SDS011;3133;43.214;27.906;2023-08-12T08:06:10;15.23;;;5.90;;
6199;SDS011;3133;43.214;27.906;2023-08-12T08:08:37;8.53;;;5.50;;
6199;SDS011;3133;43.214;27.906;2023-08-12T08:11:04;13.70;;;5.80;;
6199;SDS011;3133;43.214;27.906;2023-08-12T08:13:33;8.53;;;5.47;;
6199;SDS011;3133;43.214;27.906;2023-08-12T08:15:59;6.57;;;5.37;;
6199;SDS011;3133;43.214;27.906;2023-08-12T08:18:27;5.43;;;4.60;;
6199;SDS011;3133;43.214;27.906;2023-08-12T08:20:54;6.47;;;5.23;;
6199;SDS011;3133;43.214;27.906;2023-08-12T08:23:23;6.40;;;4.80;;
6199;SDS011;3133;43.214;27.906;2023-08-12T08:25:51;8.83;;;5.60;;
6199;SDS011;3133;43.214;27.906;2023-08-12T08:28:18;12.13;;;5.47;;
6199;SDS011;3133;43.214;27.906;2023-08-12T08:30:46;11.33;;;5.10;;
6199;SDS011;3133;43.214;27.906;2023-08-12T08:33:13;9.27;;;5.47;;
6199;SDS011;3133;43.214;27.906;2023-08-12T08:35:40;11.17;;;5.20;;
6199;SDS011;3133;43.214;27.906;2023-08-12T08:38:07;7.80;;;4.97;;
6199;SDS011;3133;43.214;27.906;2023-08-12T08:40:34;7.80;;;5.13;;
6199;SDS011;3133;43.214;27.906;2023-08-12T08:43:02;5.57;;;4.73;;
6199;SDS011;3133;43.214;27.906;2023-08-12T08:45:36;7.17;;;5.40;;
6199;SDS011;3133;43.214;27.906;2023-08-12T08:48:07;6.70;;;5.03;;
6199;SDS011;3133;43.214;27.906;2023-08-12T08:50:39;7.17;;;5.80;;
6199;SDS011;3133;43.214;27.906;2023-08-12T08:53:07;7.60;;;5.03;;
6199;SDS011;3133;43.214;27.906;2023-08-12T08:55:34;9.20;;;5.37;;
6199;SDS011;3133;43.214;27.906;2023-08-12T08:58:01;6.10;;;5.50;;
6199;SDS011;3133;43.214;27.906;2023-08-12T09:00:29;8.77;;;5.10;;
6199;SDS011;3133;43.214;27.906;2023-08-12T09:02:56;7.73;;;5.17;;
6199;SDS011;3133;43.214;27.906;2023-08-12T09:05:26;15.77;;;5.53;;
6199;SDS011;3133;43.214;27.906;2023-08-12T09:07:55;6.70;;;4.40;;
6199;SDS011;3133;43.214;27.906;2023-08-12T09:10:23;5.60;;;5.00;;
6199;SDS011;3133;43.214;27.906;2023-08-12T09:12:53;8.93;;;5.27;;
6199;SDS011;3133;43.214;27.906;2023-08-12T09:15:21;8.77;;;5.33;;
6199;SDS011;3133;43.214;27.906;2023-08-12T09:17:49;12.97;;;5.60;;
6199;SDS011;3133;43.214;27.906;2023-08-12T09:20:15;6.43;;;5.10;;
6199;SDS011;3133;43.214;27.906;2023-08-12T09:22:44;8.07;;;5.30;;
6199;SDS011;3133;43.214;27.906;2023-08-12T09:25:11;13.57;;;5.67;;
6199;SDS011;3133;43.214;27.906;2023-08-12T09:27:38;9.97;;;5.20;;
6199;SDS011;3133;43.214;27.906;2023-08-12T09:30:05;8.00;;;5.60;;
6199;SDS011;3133;43.214;27.906;2023-08-12T09:32:33;8.87;;;5.80;;
6199;SDS011;3133;43.214;27.906;2023-08-12T09:35:00;11.90;;;5.93;;
6199;SDS011;3133;43.214;27.906;2023-08-12T09:37:30;6.53;;;5.37;;
6199;SDS011;3133;43.214;27.906;2023-08-12T09:39:59;9.00;;;5.87;;
6199;SDS011;3133;43.214;27.906;2023-08-12T09:42:30;7.50;;;5.83;;
6199;SDS011;3133;43.214;27.906;2023-08-12T09:44:57;28.13;;;5.37;;
6199;SDS011;3133;43.214;27.906;2023-08-12T09:47:24;7.03;;;5.10;;
6199;SDS011;3133;43.214;27.906;2023-08-12T09:49:52;5.67;;;5.07;;
6199;SDS011;3133;43.214;27.906;2023-08-12T09:52:19;7.03;;;5.27;;
6199;SDS011;3133;43.214;27.906;2023-08-12T09:54:45;8.13;;;5.67;;
6199;SDS011;3133;43.214;27.906;2023-08-12T09:57:14;7.47;;;5.77;;
6199;SDS011;3133;43.214;27.906;2023-08-12T09:59:44;11.97;;;5.50;;
6199;SDS011;3133;43.214;27.906;2023-08-12T10:02:12;6.40;;;5.10;;
6199;SDS011;3133;43.214;27.906;2023-08-12T10:04:44;7.13;;;5.77;;
6199;SDS011;3133;43.214;27.906;2023-08-12T10:07:13;7.03;;;5.43;;
6199;SDS011;3133;43.214;27.906;2023-08-12T10:09:40;12.73;;;6.07;;
6199;SDS011;3133;43.214;27.906;2023-08-12T10:12:09;9.60;;;6.63;;
6199;SDS011;3133;43.214;27.906;2023-08-12T10:14:39;7.67;;;5.60;;
6199;SDS011;3133;43.214;27.906;2023-08-12T10:17:06;11.20;;;5.87;;
6199;SDS011;3133;43.214;27.906;2023-08-12T10:19:35;9.40;;;6.10;;
6199;SDS011;3133;43.214;27.906;2023-08-12T10:22:02;15.53;;;6.30;;
6199;SDS011;3133;43.214;27.906;2023-08-12T10:24:30;8.00;;;5.50;;
6199;SDS011;3133;43.214;27.906;2023-08-12T10:27:00;9.50;;;5.80;;
6199;SDS011;3133;43.214;27.906;2023-08-12T10:29:29;8.07;;;5.70;;
6199;SDS011;3133;43.214;27.906;2023-08-12T10:31:58;9.30;;;5.33;;
6199;SDS011;3133;43.214;27.906;2023-08-12T10:34:25;11.63;;;5.13;;
6199;SDS011;3133;43.214;27.906;2023-08-12T10:36:54;11.27;;;5.63;;
6199;SDS011;3133;43.214;27.906;2023-08-12T10:39:24;8.33;;;5.30;;
6199;SDS011;3133;43.214;27.906;2023-08-12T10:41:54;7.07;;;4.77;;
6199;SDS011;3133;43.214;27.906;2023-08-12T10:44:24;7.77;;;5.53;;
6199;SDS011;3133;43.214;27.906;2023-08-12T10:46:53;7.27;;;4.90;;
6199;SDS011;3133;43.214;27.906;2023-08-12T10:49:22;11.17;;;5.33;;
6199;SDS011;3133;43.214;27.906;2023-08-12T10:51:49;6.93;;;4.90;;
6199;SDS011;3133;43.214;27.906;2023-08-12T10:54:20;9.13;;;4.87;;
6199;SDS011;3133;43.214;27.906;2023-08-12T10:57:04;6.80;;;5.40;;
6199;SDS011;3133;43.214;27.906;2023-08-12T10:59:52;9.53;;;5.23;;
6199;SDS011;3133;43.214;27.906;2023-08-12T11:02:20;7.30;;;4.77;;
6199;SDS011;3133;43.214;27.906;2023-08-12T11:04:53;6.43;;;4.60;;
6199;SDS011;3133;43.214;27.906;2023-08-12T11:07:23;7.40;;;4.73;;
6199;SDS011;3133;43.214;27.906;2023-08-12T11:09:58;9.07;;;4.80;;
6199;SDS011;3133;43.214;27.906;2023-08-12T11:12:29;7.20;;;4.70;;
6199;SDS011;3133;43.214;27.906;2023-08-12T11:14:57;6.17;;;4.40;;
6199;SDS011;3133;43.214;27.906;2023-08-12T11:17:33;5.20;;;4.30;;
6199;SDS011;3133;43.214;27.906;2023-08-12T11:20:03;5.90;;;3.90;;
6199;SDS011;3133;43.214;27.906;2023-08-12T11:22:32;8.10;;;4.10;;
6199;SDS011;3133;43.214;27.906;2023-08-12T11:25:02;9.23;;;4.10;;
6199;SDS011;3133;43.214;27.906;2023-08-12T11:27:34;6.00;;;3.73;;
6199;SDS011;3133;43.214;27.906;2023-08-12T11:30:03;12.17;;;3.50;;
6199;SDS011;3133;43.214;27.906;2023-08-12T11:32:31;8.40;;;3.83;;
6199;SDS011;3133;43.214;27.906;2023-08-12T11:34:59;7.43;;;3.93;;
6199;SDS011;3133;43.214;27.906;2023-08-12T11:37:27;7.63;;;4.27;;
6199;SDS011;3133;43.214;27.906;2023-08-12T11:39:54;6.63;;;4.07;;
6199;SDS011;3133;43.214;27.906;2023-08-12T11:42:21;5.30;;;4.20;;
6199;SDS011;3133;43.214;27.906;2023-08-12T11:44:48;20.37;;;5.50;;
6199;SDS011;3133;43.214;27.906;2023-08-12T11:47:15;7.13;;;4.33;;
6199;SDS011;3133;43.214;27.906;2023-08-12T11:49:42;17.27;;;5.07;;
6199;SDS011;3133;43.214;27.906;2023-08-12T11:52:09;13.77;;;4.83;;
6199;SDS011;3133;43.214;27.906;2023-08-12T11:54:39;10.70;;;4.53;;
6199;SDS011;3133;43.214;27.906;2023-08-12T11:57:06;6.77;;;4.53;;
6199;SDS011;3133;43.214;27.906;2023-08-12T11:59:33;5.83;;;4.37;;
6199;SDS011;3133;43.214;27.906;2023-08-12T12:02:01;11.13;;;4.57;;
6199;SDS011;3133;43.214;27.906;2023-08-12T12:04:30;5.70;;;4.10;;
6199;SDS011;3133;43.214;27.906;2023-08-12T12:06:57;6.13;;;3.70;;
6199;SDS011;3133;43.214;27.906;2023-08-12T12:09:24;14.20;;;4.37;;
6199;SDS011;3133;43.214;27.906;2023-08-12T12:11:53;10.50;;;4.70;;
6199;SDS011;3133;43.214;27.906;2023-08-12T12:14:20;12.63;;;5.10;;
6199;SDS011;3133;43.214;27.906;2023-08-12T12:16:48;19.13;;;5.50;;
6199;SDS011;3133;43.214;27.906;2023-08-12T12:19:16;5.67;;;4.30;;
6199;SDS011;3133;43.214;27.906;2023-08-12T12:21:45;5.40;;;3.93;;
6199;SDS011;3133;43.214;27.906;2023-08-12T12:24:13;9.43;;;4.30;;
6199;SDS011;3133;43.214;27.906;2023-08-12T12:26:40;6.73;;;4.20;;
6199;SDS011;3133;43.214;27.906;2023-08-12T12:29:09;9.80;;;4.53;;
6199;SDS011;3133;43.214;27.906;2023-08-12T12:31:38;7.37;;;4.40;;
6199;SDS011;3133;43.214;27.906;2023-08-12T12:34:06;11.97;;;4.80;;
6199;SDS011;3133;43.214;27.906;2023-08-12T12:36:35;10.13;;;4.40;;
6199;SDS011;3133;43.214;27.906;2023-08-12T12:39:03;7.17;;;4.23;;
6199;SDS011;3133;43.214;27.906;2023-08-12T12:41:31;6.73;;;4.13;;
6199;SDS011;3133;43.214;27.906;2023-08-12T12:43:59;6.57;;;4.53;;
6199;SDS011;3133;43.214;27.906;2023-08-12T12:46:28;9.03;;;4.60;;
6199;SDS011;3133;43.214;27.906;2023-08-12T12:48:55;11.83;;;4.67;;
6199;SDS011;3133;43.214;27.906;2023-08-12T12:51:21;8.43;;;4.33;;
6199;SDS011;3133;43.214;27.906;2023-08-12T12:53:50;7.07;;;3.90;;
6199;SDS011;3133;43.214;27.906;2023-08-12T12:56:17;10.37;;;4.37;;
6199;SDS011;3133;43.214;27.906;2023-08-12T12:58:44;8.20;;;4.23;;
6199;SDS011;3133;43.214;27.906;2023-08-12T13:01:12;5.07;;;4.03;;
6199;SDS011;3133;43.214;27.906;2023-08-12T13:03:40;6.97;;;3.87;;
6199;SDS011;3133;43.214;27.906;2023-08-12T13:06:07;5.63;;;3.97;;
6199;SDS011;3133;43.214;27.906;2023-08-12T13:08:34;10.70;;;4.50;;
6199;SDS011;3133;43.214;27.906;2023-08-12T13:11:01;10.17;;;4.23;;
6199;SDS011;3133;43.214;27.906;2023-08-12T13:13:28;6.63;;;3.60;;
6199;SDS011;3133;43.214;27.906;2023-08-12T13:15:55;11.43;;;4.60;;
6199;SDS011;3133;43.214;27.906;2023-08-12T13:18:23;6.73;;;4.50;;
6199;SDS011;3133;43.214;27.906;2023-08-12T13:20:51;7.17;;;4.20;;
6199;SDS011;3133;43.214;27.906;2023-08-12T13:23:18;9.40;;;4.87;;
6199;SDS011;3133;43.214;27.906;2023-08-12T13:25:45;6.63;;;4.47;;
6199;SDS011;3133;43.214;27.906;2023-08-12T13:28:12;5.30;;;4.57;;
6199;SDS011;3133;43.214;27.906;2023-08-12T13:30:39;8.20;;;4.47;;
6199;SDS011;3133;43.214;27.906;2023-08-12T13:33:06;7.27;;;4.10;;
6199;SDS011;3133;43.214;27.906;2023-08-12T13:35:33;8.43;;;4.10;;
6199;SDS011;3133;43.214;27.906;2023-08-12T13:38:02;8.30;;;4.70;;
6199;SDS011;3133;43.214;27.906;2023-08-12T13:40:29;15.80;;;5.00;;
6199;SDS011;3133;43.214;27.906;2023-08-12T13:42:56;8.43;;;4.63;;
6199;SDS011;3133;43.214;27.906;2023-08-12T13:45:26;6.40;;;4.70;;
6199;SDS011;3133;43.214;27.906;2023-08-12T13:47:53;6.87;;;4.20;;
6199;SDS011;3133;43.214;27.906;2023-08-12T13:50:20;6.23;;;4.60;;
6199;SDS011;3133;43.214;27.906;2023-08-12T13:52:47;7.33;;;3.93;;
6199;SDS011;3133;43.214;27.906;2023-08-12T13:55:17;4.07;;;3.67;;
6199;SDS011;3133;43.214;27.906;2023-08-12T13:57:44;6.20;;;4.20;;
6199;SDS011;3133;43.214;27.906;2023-08-12T14:00:11;6.83;;;4.47;;
6199;SDS011;3133;43.214;27.906;2023-08-12T14:02:39;7.53;;;4.00;;
6199;SDS011;3133;43.214;27.906;2023-08-12T14:05:07;6.90;;;4.57;;
6199;SDS011;3133;43.214;27.906;2023-08-12T14:07:36;7.73;;;3.90;;
6199;SDS011;3133;43.214;27.906;2023-08-12T14:10:03;4.73;;;4.23;;
6199;SDS011;3133;43.214;27.906;2023-08-12T14:12:33;6.57;;;4.33;;
6199;SDS011;3133;43.214;27.906;2023-08-12T14:15:00;5.23;;;4.37;;
6199;SDS011;3133;43.214;27.906;2023-08-12T14:17:30;7.80;;;4.33;;
6199;SDS011;3133;43.214;27.906;2023-08-12T14:19:57;7.70;;;3.97;;
6199;SDS011;3133;43.214;27.906;2023-08-12T14:22:24;6.70;;;4.57;;
6199;SDS011;3133;43.214;27.906;2023-08-12T14:24:51;16.50;;;4.43;;
6199;SDS011;3133;43.214;27.906;2023-08-12T14:27:18;9.50;;;4.50;;
6199;SDS011;3133;43.214;27.906;2023-08-12T14:29:46;6.70;;;4.43;;
6199;SDS011;3133;43.214;27.906;2023-08-12T14:32:13;15.60;;;5.00;;
6199;SDS011;3133;43.214;27.906;2023-08-12T14:34:41;7.83;;;4.23;;
6199;SDS011;3133;43.214;27.906;2023-08-12T14:37:10;4.97;;;3.80;;
6199;SDS011;3133;43.214;27.906;2023-08-12T14:39:37;8.13;;;3.87;;
6199;SDS011;3133;43.214;27.906;2023-08-12T14:42:05;4.63;;;3.83;;
6199;SDS011;3133;43.214;27.906;2023-08-12T14:44:33;6.83;;;4.17;;
6199;SDS011;3133;43.214;27.906;2023-08-12T14:47:02;4.77;;;3.87;;
6199;SDS011;3133;43.214;27.906;2023-08-12T14:49:30;8.00;;;4.47;;
6199;SDS011;3133;43.214;27.906;2023-08-12T14:51:57;5.90;;;4.27;;
6199;SDS011;3133;43.214;27.906;2023-08-12T14:54:24;6.93;;;4.60;;
6199;SDS011;3133;43.214;27.906;2023-08-12T14:56:51;7.43;;;4.17;;
6199;SDS011;3133;43.214;27.906;2023-08-12T14:59:18;4.87;;;3.83;;
6199;SDS011;3133;43.214;27.906;2023-08-12T15:01:45;8.90;;;4.10;;
6199;SDS011;3133;43.214;27.906;2023-08-12T15:04:13;8.23;;;4.50;;